createdAt,value
2017-10-31T00:00:53.466Z,7.75
2017-10-31T00:02:03.867Z,7.77
2017-10-31T00:03:14.262Z,7.71
2017-10-31T00:04:24.709Z,7.73
2017-10-31T00:05:35.135Z,7.77
2017-10-31T00:06:45.530Z,7.73
2017-10-31T00:07:55.602Z,7.78
2017-10-31T00:09:07.327Z,7.75
2017-10-31T00:10:17.401Z,7.71
2017-10-31T00:11:27.751Z,7.73
2017-10-31T00:12:38.162Z,7.73
2017-10-31T00:13:48.564Z,7.67
2017-10-31T00:14:58.633Z,7.73
2017-10-31T00:16:08.703Z,7.75
2017-10-31T00:17:18.762Z,7.7
2017-10-31T00:18:28.838Z,7.68
2017-10-31T00:19:38.898Z,7.73
2017-10-31T00:20:49.297Z,7.68
2017-10-31T00:21:59.370Z,7.75
2017-10-31T00:23:09.434Z,7.73
2017-10-31T00:24:19.816Z,7.64
2017-10-31T00:25:29.886Z,7.64
2017-10-31T00:26:39.950Z,7.61
2017-10-31T00:27:50.348Z,7.67
2017-10-31T00:29:00.747Z,7.61
2017-10-31T00:30:11.149Z,7.56
2017-10-31T00:31:21.202Z,7.59
2017-10-31T00:32:31.274Z,7.63
2017-10-31T00:33:41.355Z,7.58
2017-10-31T00:34:51.774Z,7.59
2017-10-31T00:36:02.181Z,7.61
2017-10-31T00:37:12.567Z,7.67
2017-10-31T00:38:22.960Z,7.64
2017-10-31T00:39:33.363Z,7.64
2017-10-31T00:40:43.741Z,7.61
2017-10-31T00:41:53.152Z,7.67
2017-10-31T00:43:03.223Z,7.63
2017-10-31T00:44:13.615Z,7.58
2017-10-31T00:45:24.010Z,7.58
2017-10-31T00:46:34.076Z,7.67
2017-10-31T00:47:43.811Z,7.54
2017-10-31T00:48:54.214Z,7.55
2017-10-31T00:50:04.607Z,7.61
2017-10-31T00:51:14.727Z,7.48
2017-10-31T00:52:25.142Z,7.52
2017-10-31T00:53:35.555Z,7.56
2017-10-31T00:54:45.965Z,7.49
2017-10-31T00:55:56.360Z,7.51
2017-10-31T00:57:06.118Z,7.49
2017-10-31T00:58:16.526Z,7.44
2017-10-31T00:59:26.304Z,7.49
2017-10-31T01:00:36.698Z,7.39
2017-10-31T01:01:47.086Z,7.47
2017-10-31T01:02:57.474Z,7.44
2017-10-31T01:04:07.206Z,7.47
2017-10-31T01:05:17.263Z,7.45
2017-10-31T01:06:27.640Z,7.51
2017-10-31T01:07:38.027Z,7.49
2017-10-31T01:08:48.437Z,7.68
2017-10-31T01:09:58.499Z,7.61
2017-10-31T01:11:08.923Z,7.64
2017-10-31T01:12:19.322Z,7.73
2017-10-31T01:13:29.724Z,7.77
2017-10-31T01:14:40.122Z,7.86
2017-10-31T01:15:50.528Z,7.88
2017-10-31T01:16:59.925Z,7.98
2017-10-31T01:18:10.322Z,8.04
2017-10-31T01:19:20.700Z,8.06
2017-10-31T01:20:31.149Z,8.09
2017-10-31T01:21:41.541Z,7.99
2017-10-31T01:22:51.968Z,8.13
2017-10-31T01:24:02.376Z,8.11
2017-10-31T01:25:12.747Z,8.19
2017-10-31T01:26:23.139Z,8.24
2017-10-31T01:27:33.541Z,8.29
2017-10-31T01:28:43.938Z,8.32
2017-10-31T01:29:54.003Z,8.34
2017-10-31T01:31:04.403Z,8.44
2017-10-31T01:32:14.852Z,8.46
2017-10-31T01:33:25.249Z,8.43
2017-10-31T01:34:35.645Z,8.4
2017-10-31T01:35:46.052Z,8.44
2017-10-31T01:36:56.145Z,8.47
2017-10-31T01:38:06.616Z,8.54
2017-10-31T01:39:17.029Z,8.58
2017-10-31T01:40:27.095Z,8.47
2017-10-31T01:41:36.823Z,8.6
2017-10-31T01:42:47.249Z,8.6
2017-10-31T01:43:57.711Z,8.65
2017-10-31T01:45:07.772Z,8.69
2017-10-31T01:46:18.173Z,8.72
2017-10-31T01:47:28.583Z,8.8
2017-10-31T01:48:38.336Z,8.79
2017-10-31T01:49:48.770Z,8.82
2017-10-31T01:50:59.180Z,8.83
2017-10-31T01:52:09.574Z,8.92
2017-10-31T01:53:19.980Z,8.9
2017-10-31T01:54:30.380Z,8.92
2017-10-31T01:55:40.825Z,8.92
2017-10-31T01:56:51.208Z,8.95
2017-10-31T01:58:01.616Z,8.94
2017-10-31T01:59:11.688Z,8.94
2017-10-31T02:00:21.774Z,8.94
2017-10-31T02:01:31.837Z,8.97
2017-10-31T02:02:42.257Z,8.94
2017-10-31T02:03:52.329Z,8.94
2017-10-31T02:05:02.395Z,8.97
2017-10-31T02:06:12.809Z,9.03
2017-10-31T02:07:22.877Z,9.11
2017-10-31T02:08:33.273Z,9.01
2017-10-31T02:09:43.673Z,9.12
2017-10-31T02:10:53.739Z,9.04
2017-10-31T02:12:04.134Z,9.17
2017-10-31T02:13:14.527Z,9.12
2017-10-31T02:14:24.927Z,9.16
2017-10-31T02:15:35.328Z,9.04
2017-10-31T02:16:45.727Z,9.12
2017-10-31T02:17:56.114Z,9.05
2017-10-31T02:19:06.652Z,9.05
2017-10-31T02:20:17.055Z,8.94
2017-10-31T02:21:27.119Z,9
2017-10-31T02:22:37.517Z,9
2017-10-31T02:23:47.925Z,9.01
2017-10-31T02:24:58.313Z,8.85
2017-10-31T02:26:08.717Z,8.77
2017-10-31T02:27:19.099Z,8.82
2017-10-31T02:28:29.487Z,8.76
2017-10-31T02:29:39.550Z,8.77
2017-10-31T02:30:49.961Z,8.77
2017-10-31T02:32:00.362Z,8.77
2017-10-31T02:33:10.451Z,8.79
2017-10-31T02:34:20.892Z,8.71
2017-10-31T02:35:31.310Z,8.69
2017-10-31T02:36:41.755Z,8.71
2017-10-31T02:37:52.147Z,8.71
2017-10-31T02:39:02.549Z,8.76
2017-10-31T02:40:12.942Z,8.76
2017-10-31T02:41:23.367Z,8.67
2017-10-31T02:42:33.803Z,8.68
2017-10-31T02:43:44.195Z,8.74
2017-10-31T02:44:54.598Z,8.69
2017-10-31T02:46:04.339Z,8.74
2017-10-31T02:47:14.085Z,8.74
2017-10-31T02:48:24.492Z,8.68
2017-10-31T02:49:34.897Z,8.65
2017-10-31T02:50:44.973Z,8.67
2017-10-31T02:51:55.362Z,8.67
2017-10-31T02:53:05.442Z,8.72
2017-10-31T02:54:16.482Z,8.61
2017-10-31T02:55:26.544Z,8.71
2017-10-31T02:56:36.933Z,8.54
2017-10-31T02:57:47.352Z,8.53
2017-10-31T02:58:57.788Z,8.53
2017-10-31T03:00:07.876Z,8.67
2017-10-31T03:01:18.303Z,8.65
2017-10-31T03:32:59.849Z,6.34
2017-10-31T03:34:10.483Z,6.24
2017-10-31T03:35:20.954Z,6.28
2017-10-31T03:36:31.604Z,6.29
2017-10-31T03:37:42.231Z,6.46
2017-10-31T03:38:53.118Z,6.46
2017-10-31T03:40:05.440Z,6.52
2017-10-31T03:41:18.472Z,6.72
2017-10-31T03:42:31.071Z,6.8
2017-10-31T03:43:49.295Z,7.05
2017-10-31T03:45:00.098Z,7.16
2017-10-31T03:46:10.504Z,7.31
2017-10-31T03:47:20.885Z,7.47
2017-10-31T03:48:30.953Z,7.67
2017-10-31T03:49:41.034Z,7.75
2017-10-31T03:50:51.431Z,7.86
2017-10-31T03:52:01.512Z,7.88
2017-10-31T03:53:11.599Z,8.11
2017-10-31T03:54:21.992Z,8.11
2017-10-31T03:55:32.104Z,8.25
2017-10-31T03:56:42.192Z,8.28
2017-10-31T03:57:52.244Z,8.43
2017-10-31T03:59:02.324Z,8.49
2017-10-31T04:00:12.402Z,8.46
2017-10-31T04:01:22.866Z,8.54
2017-10-31T04:02:32.929Z,8.57
2017-10-31T04:03:43.327Z,8.64
2017-10-31T04:04:53.734Z,8.65
2017-10-31T04:06:03.834Z,8.74
2017-10-31T04:07:14.290Z,8.71
2017-10-31T04:08:24.679Z,8.79
2017-10-31T04:09:34.785Z,8.71
2017-10-31T04:10:45.193Z,8.79
2017-10-31T04:11:55.604Z,8.86
2017-10-31T04:13:06.009Z,8.79
2017-10-31T04:14:16.407Z,8.94
2017-10-31T04:15:26.817Z,8.92
2017-10-31T04:16:36.895Z,9.03
2017-10-31T04:17:46.964Z,9.03
2017-10-31T04:18:57.414Z,9.11
2017-10-31T04:20:07.810Z,9.01
2017-10-31T04:21:19.001Z,9.05
2017-10-31T04:22:29.402Z,9.16
2017-10-31T04:23:39.792Z,9.17
2017-10-31T04:24:49.629Z,9.14
2017-10-31T04:25:59.698Z,9.2
2017-10-31T04:27:09.780Z,9.2
2017-10-31T04:28:20.178Z,9.14
2017-10-31T04:29:30.586Z,9.21
2017-10-31T04:30:41.004Z,9.23
2017-10-31T04:31:51.082Z,9.09
2017-10-31T04:33:01.474Z,9.27
2017-10-31T04:34:11.866Z,9.2
2017-10-31T04:35:21.941Z,9.29
2017-10-31T04:36:32.037Z,9.26
2017-10-31T04:37:42.101Z,9.26
2017-10-31T04:38:52.213Z,9.3
2017-10-31T04:40:02.607Z,9.32
2017-10-31T04:41:12.998Z,9.3
2017-10-31T04:42:23.440Z,9.24
2017-10-31T04:43:33.825Z,9.35
2017-10-31T04:44:44.220Z,9.24
2017-10-31T04:45:54.609Z,9.24
2017-10-31T04:47:05.242Z,9.24
2017-10-31T04:48:15.302Z,9.41
2017-10-31T04:49:25.365Z,9.3
2017-10-31T04:50:35.453Z,9.38
2017-10-31T04:51:45.839Z,9.27
2017-10-31T04:52:56.234Z,9.39
2017-10-31T04:54:06.636Z,9.42
2017-10-31T04:55:16.713Z,9.42
2017-10-31T04:56:26.781Z,9.3
2017-10-31T04:57:37.178Z,9.23
2017-10-31T04:58:47.587Z,9.27
2017-10-31T04:59:58.007Z,9.24
2017-10-31T05:01:08.057Z,9.2
2017-10-31T05:02:18.459Z,9.37
2017-10-31T05:03:28.857Z,9.38
2017-10-31T05:04:38.932Z,9.44
2017-10-31T05:05:49.065Z,9.42
2017-10-31T05:06:59.136Z,9.45
2017-10-31T05:08:09.533Z,9.34
2017-10-31T05:09:19.614Z,9.35
2017-10-31T05:10:30.022Z,9.34
2017-10-31T05:11:40.481Z,9.37
2017-10-31T05:12:50.888Z,9.38
2017-10-31T05:14:01.276Z,9.41
2017-10-31T05:15:11.333Z,9.39
2017-10-31T05:16:21.081Z,9.42
2017-10-31T05:17:31.207Z,9.39
2017-10-31T05:18:41.274Z,9.41
2017-10-31T05:19:51.331Z,9.5
2017-10-31T05:21:01.720Z,9.48
2017-10-31T05:22:12.116Z,9.47
2017-10-31T05:23:22.665Z,9.59
2017-10-31T05:24:32.737Z,9.59
2017-10-31T05:25:43.142Z,9.52
2017-10-31T05:26:53.581Z,9.63
2017-10-31T05:28:03.678Z,9.48
2017-10-31T05:29:14.059Z,9.67
2017-10-31T05:30:24.455Z,9.7
2017-10-31T05:31:34.862Z,9.66
2017-10-31T05:32:45.263Z,9.7
2017-10-31T05:33:55.707Z,9.66
2017-10-31T05:35:06.207Z,9.63
2017-10-31T05:36:16.268Z,9.72
2017-10-31T05:37:26.674Z,9.74
2017-10-31T05:38:36.745Z,9.75
2017-10-31T05:39:46.814Z,9.74
2017-10-31T05:40:57.257Z,9.77
2017-10-31T05:42:07.380Z,9.8
2017-10-31T05:43:17.770Z,9.81
2017-10-31T05:44:27.856Z,9.81
2017-10-31T05:45:37.933Z,9.89
2017-10-31T05:46:48.333Z,9.93
2017-10-31T05:47:58.401Z,9.84
2017-10-31T05:49:08.792Z,9.84
2017-10-31T05:50:19.205Z,9.88
2017-10-31T05:51:29.268Z,9.9
2017-10-31T05:52:39.718Z,9.88
2017-10-31T05:53:50.112Z,9.95
2017-10-31T05:54:59.848Z,9.93
2017-10-31T05:56:09.913Z,9.85
2017-10-31T05:57:19.986Z,9.89
2017-10-31T05:58:30.113Z,10.02
2017-10-31T05:59:40.515Z,10
2017-10-31T06:00:50.907Z,9.99
2017-10-31T06:02:01.313Z,9.99
2017-10-31T06:03:11.709Z,10
2017-10-31T06:04:21.837Z,10.02
2017-10-31T06:05:32.219Z,10.02
2017-10-31T06:06:42.626Z,10.1
2017-10-31T06:07:52.689Z,10.1
2017-10-31T06:09:02.789Z,10.1
2017-10-31T06:10:13.235Z,10.14
2017-10-31T06:11:23.681Z,10.11
2017-10-31T06:12:33.753Z,10.14
2017-10-31T06:13:44.145Z,10.1
2017-10-31T06:14:54.551Z,10.13
2017-10-31T06:16:04.992Z,10.15
2017-10-31T06:17:15.377Z,10.08
2017-10-31T06:18:25.785Z,10.17
2017-10-31T06:19:35.871Z,10.1
2017-10-31T06:20:46.264Z,10.15
2017-10-31T06:21:56.393Z,10.1
2017-10-31T06:23:06.144Z,10.11
2017-10-31T06:24:16.563Z,10.11
2017-10-31T06:25:26.638Z,10.03
2017-10-31T06:26:37.042Z,10.05
2017-10-31T06:27:47.107Z,10
2017-10-31T06:28:57.175Z,9.96
2017-10-31T06:30:07.251Z,9.96
2017-10-31T06:31:16.998Z,9.98
2017-10-31T06:32:27.984Z,9.98
2017-10-31T06:33:38.367Z,9.95
2017-10-31T06:34:48.422Z,9.98
2017-10-31T06:35:58.491Z,10.08
2017-10-31T06:37:08.915Z,10.03
2017-10-31T06:38:19.320Z,10.03
2017-10-31T06:39:29.469Z,10.02
2017-10-31T06:40:39.860Z,10.13
2017-10-31T06:41:50.265Z,10.13
2017-10-31T06:43:00.694Z,10.18
2017-10-31T06:44:10.457Z,10.18
2017-10-31T06:45:20.575Z,10.18
2017-10-31T06:46:30.965Z,10.31
2017-10-31T06:47:41.356Z,10.25
2017-10-31T06:48:51.763Z,10.42
2017-10-31T06:50:02.172Z,10.36
2017-10-31T06:51:12.573Z,10.39
2017-10-31T06:52:22.950Z,10.32
2017-10-31T06:53:32.353Z,10.31
2017-10-31T06:54:42.412Z,10.39
2017-10-31T06:55:52.488Z,10.35
2017-10-31T06:57:02.611Z,10.41
2017-10-31T06:58:12.344Z,10.35
2017-10-31T06:59:22.737Z,10.32
2017-10-31T07:00:33.148Z,10.39
2017-10-31T07:01:43.557Z,10.29
2017-10-31T07:02:53.990Z,10.31
2017-10-31T07:04:04.087Z,10.26
2017-10-31T07:05:13.823Z,10.35
2017-10-31T07:06:23.572Z,10.32
2017-10-31T07:07:33.634Z,10.28
2017-10-31T07:08:44.073Z,10.25
2017-10-31T07:09:54.163Z,10.31
2017-10-31T07:11:04.556Z,10.28
2017-10-31T07:12:14.308Z,10.21
2017-10-31T07:13:24.061Z,10.32
2017-10-31T07:14:34.508Z,10.36
2017-10-31T07:15:44.901Z,10.42
2017-10-31T07:16:54.971Z,10.46
2017-10-31T07:18:05.042Z,10.42
2017-10-31T07:19:14.781Z,10.46
2017-10-31T07:20:25.243Z,10.49
2017-10-31T07:21:35.652Z,10.57
2017-10-31T07:22:46.053Z,10.55
2017-10-31T07:23:56.473Z,10.49
2017-10-31T07:25:06.886Z,10.61
2017-10-31T07:26:17.319Z,10.59
2017-10-31T07:27:27.387Z,10.58
2017-10-31T07:28:37.449Z,10.66
2017-10-31T07:29:47.878Z,10.65
2017-10-31T07:30:57.959Z,10.59
2017-10-31T07:32:08.407Z,10.73
2017-10-31T07:33:18.796Z,10.8
2017-10-31T07:34:29.220Z,10.76
2017-10-31T07:35:39.641Z,10.77
2017-10-31T07:36:49.732Z,10.9
2017-10-31T07:38:00.177Z,10.85
2017-10-31T07:39:09.929Z,10.9
2017-10-31T07:40:20.004Z,11.02
2017-10-31T07:41:30.379Z,11.03
2017-10-31T07:42:40.778Z,11.05
2017-10-31T07:43:51.186Z,11.12
2017-10-31T07:45:01.253Z,11.13
2017-10-31T07:46:11.653Z,11.16
2017-10-31T07:47:22.083Z,11.16
2017-10-31T07:48:32.501Z,11.24
2017-10-31T07:49:42.899Z,11.2
2017-10-31T07:50:53.291Z,11.27
2017-10-31T07:52:03.724Z,11.28
2017-10-31T07:53:13.795Z,11.38
2017-10-31T07:54:24.196Z,11.38
2017-10-31T07:55:34.314Z,11.43
2017-10-31T07:56:44.042Z,11.45
2017-10-31T07:57:54.437Z,11.52
2017-10-31T07:59:04.835Z,11.53
2017-10-31T08:00:15.226Z,11.66
2017-10-31T08:01:25.627Z,11.67
2017-10-31T08:02:35.376Z,11.78
2017-10-31T08:03:45.778Z,11.78
2017-10-31T08:04:55.863Z,11.88
2017-10-31T08:06:05.947Z,11.88
2017-10-31T08:07:15.689Z,11.95
2017-10-31T08:08:26.073Z,12.05
2017-10-31T08:09:36.467Z,12.08
2017-10-31T08:10:46.853Z,12.08
2017-10-31T08:11:57.245Z,12.16
2017-10-31T08:13:07.669Z,12.15
2017-10-31T08:14:18.067Z,12.23
2017-10-31T08:15:28.145Z,12.22
2017-10-31T08:16:38.537Z,12.23
2017-10-31T08:17:48.987Z,12.23
2017-10-31T08:18:59.440Z,12.2
2017-10-31T08:20:09.861Z,12.23
2017-10-31T08:21:20.263Z,12.23
2017-10-31T08:22:30.335Z,12.33
2017-10-31T08:23:40.731Z,12.4
2017-10-31T08:24:51.192Z,12.52
2017-10-31T08:26:01.596Z,12.53
2017-10-31T08:27:11.666Z,12.61
2017-10-31T08:28:21.406Z,12.7
2017-10-31T08:29:31.810Z,12.84
2017-10-31T08:30:41.887Z,12.91
2017-10-31T08:31:52.288Z,12.92
2017-10-31T08:33:02.702Z,12.91
2017-10-31T08:34:12.782Z,12.96
2017-10-31T08:35:22.839Z,13.01
2017-10-31T08:36:33.250Z,13.02
2017-10-31T08:37:43.314Z,13.03
2017-10-31T08:38:53.709Z,13.14
2017-10-31T08:40:04.121Z,13.17
2017-10-31T08:41:14.509Z,13.28
2017-10-31T08:42:24.593Z,13.32
2017-10-31T08:43:34.992Z,13.42
2017-10-31T08:44:45.383Z,13.35
2017-10-31T08:45:55.776Z,13.35
2017-10-31T08:47:05.518Z,13.53
2017-10-31T08:48:15.968Z,13.53
2017-10-31T08:49:26.380Z,13.6
2017-10-31T08:50:36.825Z,13.65
2017-10-31T08:51:46.932Z,13.69
2017-10-31T08:52:57.037Z,13.76
2017-10-31T08:54:07.457Z,13.84
2017-10-31T08:55:17.869Z,13.94
2017-10-31T08:56:28.266Z,13.94
2017-10-31T08:57:38.341Z,14.19
2017-10-31T08:58:48.729Z,14.21
2017-10-31T08:59:59.118Z,14.27
2017-10-31T09:01:09.529Z,14.31
2017-10-31T09:02:19.931Z,14.36
2017-10-31T09:03:30.349Z,14.42
2017-10-31T09:04:40.076Z,14.42
2017-10-31T09:05:50.545Z,14.42
2017-10-31T09:07:00.951Z,14.48
2017-10-31T09:08:11.356Z,14.51
2017-10-31T09:09:21.770Z,14.51
2017-10-31T09:10:32.158Z,14.6
2017-10-31T09:11:42.596Z,14.64
2017-10-31T09:12:53.004Z,14.64
2017-10-31T09:14:03.079Z,14.64
2017-10-31T09:15:13.486Z,14.67
2017-10-31T09:16:23.910Z,14.64
2017-10-31T09:17:34.343Z,14.71
2017-10-31T09:18:44.421Z,14.79
2017-10-31T09:19:54.822Z,14.83
2017-10-31T09:21:05.203Z,14.9
2017-10-31T09:22:15.275Z,14.87
2017-10-31T09:23:25.741Z,14.86
2017-10-31T09:24:35.828Z,14.82
2017-10-31T09:25:46.226Z,14.74
2017-10-31T09:26:56.616Z,14.82
2017-10-31T09:28:07.028Z,14.86
2017-10-31T09:29:16.822Z,14.9
2017-10-31T09:30:27.242Z,14.89
2017-10-31T09:31:37.686Z,14.89
2017-10-31T09:32:48.093Z,15.12
2017-10-31T09:33:58.504Z,15.08
2017-10-31T09:35:08.573Z,15.04
2017-10-31T09:36:18.966Z,15.16
2017-10-31T09:37:28.705Z,15.13
2017-10-31T09:38:38.781Z,15.05
2017-10-31T09:39:48.201Z,15.05
2017-10-31T09:40:58.610Z,15.04
2017-10-31T09:42:08.691Z,15.13
2017-10-31T09:43:18.770Z,15.08
2017-10-31T09:44:28.515Z,15.08
2017-10-31T09:45:38.914Z,15.34
2017-10-31T09:46:49.369Z,15.3
2017-10-31T09:47:59.779Z,15.34
2017-10-31T09:49:09.837Z,15.37
2017-10-31T09:50:19.913Z,15.31
2017-10-31T09:51:29.976Z,15.38
2017-10-31T09:52:40.425Z,15.37
2017-10-31T09:53:50.826Z,15.38
2017-10-31T09:55:01.233Z,15.44
2017-10-31T09:56:11.626Z,15.41
2017-10-31T09:57:22.035Z,15.44
2017-10-31T09:58:32.160Z,15.56
2017-10-31T09:59:42.219Z,15.58
2017-10-31T10:00:52.633Z,15.58
2017-10-31T10:02:03.031Z,15.65
2017-10-31T10:03:13.197Z,15.7
2017-10-31T10:04:23.324Z,15.65
2017-10-31T10:05:33.724Z,15.65
2017-10-31T10:06:44.131Z,15.67
2017-10-31T10:07:54.203Z,15.65
2017-10-31T10:09:04.592Z,15.8
2017-10-31T10:10:14.671Z,15.78
2017-10-31T10:11:25.095Z,15.88
2017-10-31T10:12:35.168Z,15.88
2017-10-31T10:13:45.561Z,15.92
2017-10-31T10:14:55.956Z,15.8
2017-10-31T10:16:06.382Z,15.83
2017-10-31T10:17:16.467Z,15.77
2017-10-31T10:18:26.860Z,15.83
2017-10-31T10:19:37.307Z,15.88
2017-10-31T10:20:47.379Z,15.88
2017-10-31T10:21:57.793Z,15.81
2017-10-31T10:23:08.186Z,15.86
2017-10-31T10:24:18.585Z,15.95
2017-10-31T10:25:29.046Z,15.89
2017-10-31T10:26:39.461Z,15.86
2017-10-31T10:27:49.553Z,15.86
2017-10-31T10:28:59.989Z,15.83
2017-10-31T10:30:10.416Z,15.88
2017-10-31T10:31:20.825Z,15.93
2017-10-31T10:32:30.929Z,16
2017-10-31T10:33:41.336Z,15.99
2017-10-31T10:34:52.134Z,16
2017-10-31T10:36:02.550Z,16.1
2017-10-31T10:37:12.614Z,16.11
2017-10-31T10:38:22.379Z,16.13
2017-10-31T10:39:32.452Z,16.16
2017-10-31T10:40:42.853Z,16.11
2017-10-31T10:41:53.291Z,16.14
2017-10-31T10:43:03.761Z,16.16
2017-10-31T10:44:13.502Z,16.07
2017-10-31T10:45:23.906Z,15.99
2017-10-31T10:46:34.302Z,16.16
2017-10-31T10:47:44.698Z,16.04
2017-10-31T10:48:55.091Z,16.1
2017-10-31T10:50:05.160Z,15.92
2017-10-31T10:51:15.581Z,15.86
2017-10-31T10:52:25.644Z,15.77
2017-10-31T10:53:36.054Z,15.65
2017-10-31T10:54:46.455Z,15.63
2017-10-31T10:55:56.855Z,15.52
2017-10-31T10:57:07.258Z,15.59
2017-10-31T10:58:17.339Z,15.65
2017-10-31T10:59:27.807Z,15.74
2017-10-31T11:00:37.868Z,15.75
2017-10-31T11:01:48.261Z,15.63
2017-10-31T11:02:58.652Z,15.65
2017-10-31T11:04:09.063Z,15.75
2017-10-31T11:05:19.479Z,15.81
2017-10-31T11:06:29.945Z,15.96
2017-10-31T11:07:40.337Z,16.08
2017-10-31T11:08:50.725Z,16.07
2017-10-31T11:10:00.809Z,16.14
2017-10-31T11:11:11.363Z,16.27
2017-10-31T11:12:21.511Z,16.21
2017-10-31T11:13:31.929Z,16.29
2017-10-31T11:14:42.004Z,16.32
2017-10-31T11:15:52.395Z,16.36
2017-10-31T11:17:02.785Z,16.37
2017-10-31T11:18:12.910Z,16.45
2017-10-31T11:19:22.665Z,16.44
2017-10-31T11:20:33.068Z,16.59
2017-10-31T11:21:43.477Z,16.62
2017-10-31T11:22:53.876Z,16.63
2017-10-31T11:24:04.355Z,16.74
2017-10-31T11:25:14.437Z,16.81
2017-10-31T11:26:24.523Z,16.76
2017-10-31T11:27:34.589Z,16.87
2017-10-31T11:28:45.010Z,16.81
2017-10-31T11:29:55.128Z,16.76
2017-10-31T11:31:05.533Z,16.66
2017-10-31T11:32:16.158Z,16.58
2017-10-31T11:33:26.669Z,16.59
2017-10-31T11:34:37.058Z,16.47
2017-10-31T11:35:47.195Z,16.47
2017-10-31T11:36:57.602Z,16.39
2017-10-31T11:38:07.664Z,16.47
2017-10-31T11:39:18.054Z,16.44
2017-10-31T11:40:28.469Z,16.48
2017-10-31T11:41:38.593Z,16.4
2017-10-31T11:42:48.996Z,16.54
2017-10-31T11:43:59.414Z,16.57
2017-10-31T11:45:09.826Z,16.59
2017-10-31T11:46:20.240Z,16.63
2017-10-31T11:47:30.701Z,16.58
2017-10-31T11:48:41.097Z,16.72
2017-10-31T11:49:51.177Z,16.67
2017-10-31T11:51:01.571Z,16.72
2017-10-31T11:52:11.985Z,16.77
2017-10-31T11:53:22.389Z,16.66
2017-10-31T11:54:32.838Z,16.67
2017-10-31T11:55:43.230Z,16.66
2017-10-31T11:56:53.853Z,16.66
2017-10-31T11:58:03.925Z,16.57
2017-10-31T11:59:14.317Z,16.58
2017-10-31T12:00:24.402Z,16.58
2017-10-31T12:01:34.814Z,16.57
2017-10-31T12:02:44.918Z,16.65
2017-10-31T12:03:55.338Z,16.59
2017-10-31T12:05:05.795Z,16.72
2017-10-31T12:06:15.854Z,16.69
2017-10-31T12:07:26.278Z,16.72
2017-10-31T12:08:36.691Z,16.57
2017-10-31T12:09:46.772Z,16.58
2017-10-31T12:10:56.905Z,16.45
2017-10-31T12:12:06.985Z,16.55
2017-10-31T12:13:17.384Z,16.51
2017-10-31T12:14:27.780Z,16.58
2017-10-31T12:15:38.192Z,16.59
2017-10-31T12:16:48.644Z,16.52
2017-10-31T12:17:59.064Z,16.59
2017-10-31T12:19:09.501Z,16.62
2017-10-31T12:20:19.573Z,16.65
2017-10-31T12:21:29.990Z,16.65
2017-10-31T12:22:40.443Z,16.67
2017-10-31T12:23:50.511Z,16.67
2017-10-31T12:25:00.924Z,16.65
2017-10-31T12:26:11.321Z,16.55
2017-10-31T12:27:21.713Z,16.4
2017-10-31T12:28:31.784Z,16.48
2017-10-31T12:29:41.861Z,16.47
2017-10-31T12:30:52.256Z,16.45
2017-10-31T12:32:02.658Z,16.37
2017-10-31T12:33:12.731Z,16.3
2017-10-31T12:34:23.175Z,16.32
2017-10-31T12:35:33.586Z,16.26
2017-10-31T12:36:43.328Z,16.22
2017-10-31T12:37:53.725Z,16.14
2017-10-31T12:39:04.125Z,16.26
2017-10-31T12:40:14.246Z,16.27
2017-10-31T12:41:24.668Z,16.33
2017-10-31T12:42:34.804Z,16.37
2017-10-31T12:43:44.546Z,16.37
2017-10-31T12:44:54.955Z,16.37
2017-10-31T12:46:05.346Z,16.42
2017-10-31T12:47:15.423Z,16.44
2017-10-31T12:48:25.840Z,16.44
2017-10-31T12:49:36.263Z,16.47
2017-10-31T12:50:46.669Z,16.47
2017-10-31T12:51:57.114Z,16.47
2017-10-31T12:53:07.507Z,16.36
2017-10-31T12:54:17.588Z,16.29
2017-10-31T12:55:27.987Z,16.26
2017-10-31T12:56:38.044Z,16.18
2017-10-31T12:57:48.457Z,16.25
2017-10-31T12:58:58.866Z,16.26
2017-10-31T13:00:09.277Z,16.27
2017-10-31T13:01:19.693Z,16.3
2017-10-31T13:02:30.107Z,16.3
2017-10-31T13:03:40.526Z,16.13
2017-10-31T13:04:50.930Z,16.16
2017-10-31T13:06:01.366Z,16.14
2017-10-31T13:07:11.771Z,16.13
2017-10-31T13:08:21.851Z,16.06
2017-10-31T13:09:31.673Z,15.99
2017-10-31T13:10:41.755Z,15.99
2017-10-31T13:11:51.834Z,15.95
2017-10-31T13:13:01.593Z,15.93
2017-10-31T13:14:12.019Z,15.88
2017-10-31T13:15:22.175Z,15.88
2017-10-31T13:16:32.578Z,15.84
2017-10-31T13:17:42.682Z,15.78
2017-10-31T13:18:52.444Z,15.8
2017-10-31T13:20:02.864Z,15.6
2017-10-31T13:21:13.351Z,15.62
2017-10-31T13:22:23.768Z,15.58
2017-10-31T13:23:34.186Z,15.47
2017-10-31T13:24:44.597Z,15.51
2017-10-31T13:25:54.348Z,15.41
2017-10-31T13:27:04.803Z,15.34
2017-10-31T13:28:15.210Z,15.35
2017-10-31T13:29:25.599Z,15.37
2017-10-31T13:30:35.992Z,15.27
2017-10-31T13:31:47.335Z,15.22
2017-10-31T13:32:57.760Z,15.31
2017-10-31T13:34:08.169Z,15.49
2017-10-31T13:35:18.248Z,15.59
2017-10-31T13:36:28.664Z,15.71
2017-10-31T13:37:39.078Z,15.71
2017-10-31T13:38:49.478Z,15.84
2017-10-31T13:39:59.572Z,15.77
2017-10-31T13:41:09.656Z,15.78
2017-10-31T13:42:20.071Z,15.8
2017-10-31T13:43:30.486Z,15.74
2017-10-31T13:44:40.945Z,15.75
2017-10-31T13:45:51.031Z,15.86
2017-10-31T13:47:01.128Z,15.83
2017-10-31T13:48:11.556Z,15.81
2017-10-31T13:49:21.973Z,15.74
2017-10-31T13:50:32.063Z,15.74
2017-10-31T13:51:42.131Z,15.8
2017-10-31T13:52:52.528Z,15.95
2017-10-31T13:54:02.601Z,16.06
2017-10-31T13:55:13.161Z,16.14
2017-10-31T13:56:24.248Z,16.25
2017-10-31T13:57:34.655Z,16.37
2017-10-31T13:58:44.725Z,16.1
2017-10-31T13:59:55.131Z,15.92
2017-10-31T14:01:05.552Z,15.86
2017-10-31T14:02:15.954Z,15.78
2017-10-31T14:03:26.382Z,15.68
2017-10-31T14:04:36.784Z,15.58
2017-10-31T14:05:46.527Z,15.53
2017-10-31T14:06:56.618Z,15.44
2017-10-31T14:08:07.083Z,15.38
2017-10-31T14:09:17.475Z,15.34
2017-10-31T14:10:27.877Z,15.3
2017-10-31T14:11:38.696Z,15.15
2017-10-31T14:12:49.117Z,15.12
2017-10-31T14:13:59.519Z,15
2017-10-31T14:15:09.919Z,14.97
2017-10-31T14:16:20.342Z,14.87
2017-10-31T14:17:30.425Z,14.93
2017-10-31T14:18:40.835Z,14.77
2017-10-31T14:19:50.907Z,14.7
2017-10-31T14:21:01.338Z,14.63
2017-10-31T14:22:11.766Z,14.56
2017-10-31T14:23:21.837Z,14.56
2017-10-31T14:24:31.939Z,14.46
2017-10-31T14:25:42.397Z,14.36
2017-10-31T14:26:51.824Z,14.16
2017-10-31T14:28:02.236Z,14.16
2017-10-31T14:29:12.642Z,14.06
2017-10-31T14:30:23.033Z,13.99
2017-10-31T14:31:33.141Z,13.9
2017-10-31T14:32:43.574Z,13.78
2017-10-31T14:33:53.655Z,13.84
2017-10-31T14:35:03.750Z,13.83
2017-10-31T14:36:14.157Z,13.78
2017-10-31T14:37:24.619Z,13.75
2017-10-31T14:38:35.015Z,13.81
2017-10-31T14:39:45.088Z,13.81
2017-10-31T14:40:55.514Z,13.84
2017-10-31T14:42:05.929Z,13.87
2017-10-31T14:43:16.402Z,13.9
2017-10-31T14:44:26.484Z,13.95
2017-10-31T14:45:36.878Z,13.94
2017-10-31T14:46:47.272Z,13.91
2017-10-31T14:47:57.360Z,13.91
2017-10-31T14:49:07.813Z,13.94
2017-10-31T14:50:17.943Z,13.99
2017-10-31T14:51:28.354Z,13.87
2017-10-31T14:52:38.411Z,13.83
2017-10-31T14:53:48.845Z,13.9
2017-10-31T14:54:59.331Z,13.81
2017-10-31T14:56:09.732Z,13.72
2017-10-31T14:57:20.149Z,13.72
2017-10-31T14:58:30.797Z,13.7
2017-10-31T14:59:41.191Z,13.62
2017-10-31T15:00:51.655Z,13.63
2017-10-31T15:02:02.090Z,13.7
2017-10-31T15:03:12.514Z,13.65
2017-10-31T15:04:22.969Z,13.62
2017-10-31T15:05:33.048Z,13.65
2017-10-31T15:06:43.197Z,13.63
2017-10-31T15:07:53.606Z,13.62
2017-10-31T15:09:04.034Z,13.6
2017-10-31T15:10:14.431Z,13.53
2017-10-31T15:11:24.834Z,13.47
2017-10-31T15:12:35.272Z,13.48
2017-10-31T15:13:45.333Z,13.51
2017-10-31T15:14:55.731Z,13.54
2017-10-31T15:16:05.821Z,13.57
2017-10-31T15:17:15.568Z,13.39
2017-10-31T15:18:25.640Z,13.47
2017-10-31T15:19:35.732Z,13.48
2017-10-31T15:20:45.841Z,13.37
2017-10-31T15:21:56.226Z,13.36
2017-10-31T15:23:06.330Z,13.47
2017-10-31T15:24:16.781Z,13.35
2017-10-31T15:25:26.837Z,13.32
2017-10-31T15:26:37.250Z,13.35
2017-10-31T15:27:47.665Z,13.31
2017-10-31T15:28:58.089Z,13.32
2017-10-31T15:30:08.503Z,13.39
2017-10-31T15:31:18.914Z,13.36
2017-10-31T15:32:29.321Z,13.25
2017-10-31T15:33:39.379Z,13.28
2017-10-31T15:34:49.763Z,13.31
2017-10-31T15:36:00.228Z,13.25
2017-10-31T15:37:09.993Z,13.16
2017-10-31T15:38:20.064Z,13.2
2017-10-31T15:39:30.542Z,13.16
2017-10-31T15:40:40.954Z,13.19
2017-10-31T15:41:52.246Z,13.2
2017-10-31T15:43:02.671Z,13.21
2017-10-31T15:44:13.090Z,13.17
2017-10-31T15:45:23.161Z,13.14
2017-10-31T15:46:33.570Z,13.13
2017-10-31T15:47:43.319Z,13.09
2017-10-31T15:48:53.062Z,13.09
2017-10-31T15:50:03.142Z,13.1